createdAt,value
2022-12-03T00:00:13.432Z,5.72
2022-12-03T00:02:41.985Z,5.85
2022-12-03T00:05:11.660Z,6.32
2022-12-03T00:07:40.377Z,5.93
2022-12-03T00:10:08.763Z,6.10
2022-12-03T00:12:36.781Z,6.38
2022-12-03T00:15:05.628Z,7.00
2022-12-03T00:17:33.267Z,6.78
2022-12-03T00:20:01.327Z,7.53
2022-12-03T00:22:29.117Z,6.80
2022-12-03T00:24:56.975Z,7.57
2022-12-03T00:27:24.823Z,7.35
2022-12-03T00:29:52.833Z,7.90
2022-12-03T00:32:20.778Z,7.88
2022-12-03T00:34:48.514Z,7.10
2022-12-03T00:37:18.289Z,6.65
2022-12-03T00:39:46.618Z,6.47
2022-12-03T00:42:14.511Z,6.18
2022-12-03T00:44:42.332Z,6.43
2022-12-03T00:47:10.469Z,6.05
2022-12-03T00:49:39.134Z,5.97
2022-12-03T00:52:06.766Z,6.38
2022-12-03T00:54:34.800Z,6.53
2022-12-03T00:57:02.532Z,6.38
2022-12-03T00:59:30.173Z,6.53
2022-12-03T01:01:57.980Z,6.18
2022-12-03T01:04:25.825Z,5.75
2022-12-03T01:06:53.721Z,5.72
2022-12-03T01:09:21.762Z,5.43
2022-12-03T01:11:49.623Z,5.10
2022-12-03T01:14:19.498Z,4.80
2022-12-03T01:16:48.137Z,5.15
2022-12-03T01:19:17.024Z,5.25
2022-12-03T01:21:47.602Z,4.68
2022-12-03T01:24:15.544Z,5.43
2022-12-03T01:26:43.520Z,5.35
2022-12-03T01:29:11.256Z,5.30
2022-12-03T01:31:57.473Z,5.82
2022-12-03T01:34:25.169Z,6.10
2022-12-03T01:36:52.945Z,6.43
2022-12-03T01:39:20.809Z,6.15
2022-12-03T01:41:50.526Z,6.15
2022-12-03T01:44:27.519Z,5.90
2022-12-03T01:46:57.657Z,6.10
2022-12-03T01:49:30.316Z,6.10
2022-12-03T01:51:59.204Z,5.63
2022-12-03T01:54:31.588Z,6.60
2022-12-03T01:56:59.251Z,6.05
2022-12-03T01:59:34.607Z,5.97
2022-12-03T02:02:19.323Z,6.20
2022-12-03T02:04:47.248Z,5.63
2022-12-03T02:07:35.222Z,5.60
2022-12-03T02:10:04.485Z,5.40
2022-12-03T02:12:38.259Z,5.20
2022-12-03T02:15:07.197Z,5.40
2022-12-03T02:17:35.397Z,5.25
2022-12-03T02:20:05.417Z,4.95
2022-12-03T02:23:01.763Z,5.20
2022-12-03T02:25:32.552Z,5.32
2022-12-03T02:28:00.987Z,4.95
2022-12-03T02:30:30.423Z,4.88
2022-12-03T02:32:58.949Z,5.03
2022-12-03T02:35:33.759Z,5.18
2022-12-03T02:38:19.441Z,4.45
2022-12-03T02:40:50.210Z,4.53
2022-12-03T02:43:20.371Z,4.82
2022-12-03T02:45:53.380Z,4.40
2022-12-03T02:48:44.337Z,4.50
2022-12-03T02:51:12.083Z,3.83
2022-12-03T02:53:44.864Z,4.00
2022-12-03T02:56:15.287Z,4.00
2022-12-03T02:58:45.393Z,3.97
2022-12-03T03:01:15.536Z,3.58
2022-12-03T03:03:45.022Z,3.67
2022-12-03T03:06:13.423Z,3.00
2022-12-03T03:08:42.547Z,3.28
2022-12-03T03:11:10.515Z,2.95
2022-12-03T03:13:39.324Z,3.33
2022-12-03T03:16:07.794Z,3.08
2022-12-03T03:18:36.269Z,3.28
2022-12-03T03:21:05.222Z,3.22
2022-12-03T03:23:33.237Z,3.10
2022-12-03T03:26:06.012Z,2.83
2022-12-03T03:28:41.732Z,2.53
2022-12-03T03:31:12.969Z,2.60
2022-12-03T03:33:43.151Z,2.95
2022-12-03T03:36:12.594Z,2.35
2022-12-03T03:38:42.034Z,2.88
2022-12-03T03:41:11.139Z,2.42
2022-12-03T03:43:40.951Z,3.08
2022-12-03T03:46:09.803Z,3.00
2022-12-03T03:48:38.537Z,3.20
2022-12-03T03:51:10.006Z,2.97
2022-12-03T03:53:42.521Z,3.42
2022-12-03T03:56:11.034Z,3.17
2022-12-03T03:58:38.944Z,3.00
2022-12-03T04:01:07.550Z,2.97
2022-12-03T04:03:36.086Z,3.42
2022-12-03T04:06:05.502Z,3.10
2022-12-03T04:08:33.405Z,3.15
2022-12-03T04:11:21.316Z,3.42
2022-12-03T04:13:49.104Z,3.58
2022-12-03T04:16:16.956Z,3.70
2022-12-03T04:18:44.859Z,3.70
2022-12-03T04:21:36.709Z,3.80
2022-12-03T04:24:06.362Z,3.80
2022-12-03T04:26:53.319Z,3.63
2022-12-03T04:29:21.867Z,3.40
2022-12-03T04:32:09.212Z,3.83
2022-12-03T04:34:55.616Z,3.53
2022-12-03T04:37:23.455Z,3.65
2022-12-03T04:39:51.576Z,3.42
2022-12-03T04:42:19.417Z,3.20
2022-12-03T04:44:47.321Z,3.50
2022-12-03T04:47:20.709Z,3.83
2022-12-03T04:49:52.183Z,3.42
2022-12-03T04:52:21.092Z,3.53
2022-12-03T04:54:48.769Z,3.67
2022-12-03T04:57:16.721Z,3.20
2022-12-03T04:59:45.768Z,3.78
2022-12-03T05:02:13.519Z,3.38
2022-12-03T05:04:41.271Z,3.35
2022-12-03T05:07:08.956Z,3.55
2022-12-03T05:09:36.751Z,3.25
2022-12-03T05:12:04.855Z,3.08
2022-12-03T05:14:32.614Z,3.47
2022-12-03T05:17:00.381Z,4.10
2022-12-03T05:19:48.255Z,4.00
2022-12-03T05:24:43.620Z,4.25
2022-12-03T05:27:11.411Z,3.90
2022-12-03T05:29:39.120Z,3.58
2022-12-03T05:32:07.152Z,3.50
2022-12-03T05:34:34.868Z,3.80
2022-12-03T05:37:03.200Z,3.67
2022-12-03T05:39:31.109Z,3.30
2022-12-03T05:42:17.544Z,3.90
2022-12-03T05:44:45.594Z,3.67
2022-12-03T05:47:13.519Z,3.63
2022-12-03T05:49:41.690Z,3.60
2022-12-03T05:52:09.606Z,3.50
2022-12-03T05:54:37.513Z,3.67
2022-12-03T05:57:05.675Z,3.42
2022-12-03T05:59:33.320Z,3.95
2022-12-03T06:02:01.082Z,3.58
2022-12-03T06:04:28.986Z,3.78
2022-12-03T06:06:57.241Z,3.90
2022-12-03T06:09:27.426Z,4.05
2022-12-03T06:11:55.270Z,3.92
2022-12-03T06:14:23.154Z,4.35
2022-12-03T06:16:50.969Z,4.05
2022-12-03T06:19:20.232Z,4.40
2022-12-03T06:21:48.026Z,4.30
2022-12-03T06:24:15.666Z,3.97
2022-12-03T06:26:43.360Z,3.75
2022-12-03T06:29:11.135Z,3.90
2022-12-03T06:31:38.798Z,4.53
2022-12-03T06:34:07.343Z,4.18
2022-12-03T06:36:35.158Z,4.93
2022-12-03T06:39:02.827Z,4.53
2022-12-03T06:41:31.393Z,3.85
2022-12-03T06:43:59.088Z,4.18
2022-12-03T06:46:26.911Z,4.43
2022-12-03T06:48:54.706Z,4.78
2022-12-03T06:51:23.201Z,4.22
2022-12-03T06:53:50.827Z,4.15
2022-12-03T06:56:22.133Z,4.80
2022-12-03T06:58:50.198Z,4.03
2022-12-03T07:01:18.126Z,3.50
2022-12-03T07:03:45.932Z,4.00
2022-12-03T07:06:13.862Z,4.40
2022-12-03T07:08:41.679Z,4.13
2022-12-03T07:11:30.306Z,4.18
2022-12-03T07:14:05.464Z,4.43
2022-12-03T07:16:35.349Z,4.43
2022-12-03T07:19:05.170Z,4.75
2022-12-03T07:21:32.889Z,4.85
2022-12-03T07:24:00.788Z,5.22
2022-12-03T07:26:28.813Z,5.40
2022-12-03T07:28:56.530Z,5.32
2022-12-03T07:31:24.493Z,6.68
2022-12-03T07:33:52.344Z,6.72
2022-12-03T07:36:20.686Z,8.27
2022-12-03T07:38:48.710Z,10.82
2022-12-03T07:41:16.913Z,8.43
2022-12-03T07:43:45.465Z,6.82
2022-12-03T07:46:13.174Z,5.53
2022-12-03T07:48:41.133Z,5.50
2022-12-03T07:51:14.247Z,4.93
2022-12-03T07:53:43.273Z,4.38
2022-12-03T07:56:11.478Z,4.40
2022-12-03T07:58:39.543Z,4.07
2022-12-03T08:01:07.400Z,4.07
2022-12-03T08:03:35.204Z,4.03
2022-12-03T08:06:03.215Z,4.40
2022-12-03T08:08:31.576Z,4.38
2022-12-03T08:11:02.216Z,4.20
2022-12-03T08:13:30.064Z,4.60
2022-12-03T08:16:01.132Z,4.47
2022-12-03T08:18:29.117Z,4.60
2022-12-03T08:20:57.694Z,4.45
2022-12-03T08:23:28.426Z,4.55
2022-12-03T08:25:56.193Z,4.13
2022-12-03T08:28:28.511Z,4.35
2022-12-03T08:31:07.540Z,4.05
2022-12-03T08:33:37.859Z,4.07
2022-12-03T08:36:30.834Z,4.07
2022-12-03T08:39:16.615Z,4.30
2022-12-03T08:42:14.401Z,4.35
2022-12-03T08:44:42.089Z,5.00
2022-12-03T08:47:09.902Z,4.88
2022-12-03T08:49:38.026Z,5.45
2022-12-03T08:52:33.363Z,7.07
2022-12-03T08:55:23.386Z,6.50
2022-12-03T08:57:51.036Z,6.25
2022-12-03T09:00:24.340Z,5.60
2022-12-03T09:02:55.770Z,5.32
2022-12-03T09:05:27.918Z,5.47
2022-12-03T09:07:55.640Z,6.07
2022-12-03T09:10:23.569Z,5.30
2022-12-03T09:12:51.302Z,5.60
2022-12-03T09:15:18.928Z,5.38
2022-12-03T09:17:49.175Z,5.47
2022-12-03T09:20:16.999Z,4.68
2022-12-03T09:22:44.728Z,5.32
2022-12-03T09:25:12.453Z,4.93
2022-12-03T09:27:40.112Z,4.38
2022-12-03T09:30:08.191Z,4.47
2022-12-03T09:32:35.883Z,4.57
2022-12-03T09:35:04.024Z,3.95
2022-12-03T09:37:32.216Z,4.07
2022-12-03T09:40:00.297Z,3.83
2022-12-03T09:42:28.349Z,4.15
2022-12-03T09:44:56.196Z,5.03
2022-12-03T09:47:25.302Z,6.13
2022-12-03T09:49:53.350Z,6.03
2022-12-03T09:52:27.953Z,6.93
2022-12-03T09:54:56.111Z,7.55
2022-12-03T09:57:24.493Z,7.75
2022-12-03T09:59:52.677Z,7.13
2022-12-03T10:02:31.122Z,7.20
2022-12-03T10:04:59.091Z,7.63
2022-12-03T10:07:26.940Z,7.32
2022-12-03T10:09:54.952Z,6.88
2022-12-03T10:12:24.805Z,7.93
2022-12-03T10:14:54.571Z,6.43
2022-12-03T10:17:22.558Z,6.60
2022-12-03T10:19:51.896Z,7.50
2022-12-03T10:22:19.938Z,8.63
2022-12-03T10:25:14.837Z,7.43
2022-12-03T10:27:43.041Z,9.77
2022-12-03T10:30:19.942Z,13.20
2022-12-03T10:32:50.470Z,11.88
2022-12-03T10:35:22.079Z,10.05
2022-12-03T10:38:28.441Z,9.80
2022-12-03T10:40:56.013Z,8.30
2022-12-03T10:43:25.782Z,7.38
2022-12-03T10:46:03.884Z,7.70
2022-12-03T10:48:32.202Z,7.72
2022-12-03T10:51:04.372Z,9.07
2022-12-03T10:53:34.584Z,9.43
2022-12-03T10:56:06.106Z,9.68
2022-12-03T10:58:41.012Z,8.65
2022-12-03T11:01:25.731Z,8.00
2022-12-03T11:04:01.426Z,9.70
2022-12-03T11:06:31.463Z,8.35
2022-12-03T11:09:03.839Z,8.70
2022-12-03T11:11:34.749Z,9.75
2022-12-03T11:14:04.091Z,9.45
2022-12-03T11:16:41.077Z,8.45
2022-12-03T11:19:39.114Z,7.90
2022-12-03T11:22:06.979Z,8.20
2022-12-03T11:24:36.390Z,7.65
2022-12-03T11:27:04.123Z,8.65
2022-12-03T11:29:54.463Z,7.60
2022-12-03T11:32:59.517Z,11.15
2022-12-03T11:35:36.392Z,14.90
2022-12-03T11:38:38.467Z,14.35
2022-12-03T11:41:18.879Z,9.85
2022-12-03T11:43:53.634Z,7.32
2022-12-03T11:46:25.008Z,6.25
2022-12-03T11:48:55.813Z,6.32
2022-12-03T11:51:27.307Z,9.15
2022-12-03T11:53:57.969Z,14.75
2022-12-03T11:56:30.903Z,12.73
2022-12-03T11:59:05.497Z,10.88
2022-12-03T12:01:39.378Z,8.18
2022-12-03T12:04:27.115Z,10.57
2022-12-03T12:09:55.487Z,9.05
2022-12-03T12:12:38.691Z,8.80
2022-12-03T12:15:41.888Z,6.93
2022-12-03T12:18:42.099Z,4.88
2022-12-03T12:21:48.629Z,4.70
2022-12-03T12:24:36.652Z,5.45
2022-12-03T12:27:09.236Z,12.82
2022-12-03T12:29:38.863Z,14.98
2022-12-03T12:32:09.873Z,14.70
2022-12-03T12:34:39.273Z,15.63
2022-12-03T12:37:33.955Z,13.30
2022-12-03T12:40:11.734Z,9.82
2022-12-03T12:42:50.337Z,8.65
2022-12-03T12:45:26.532Z,8.15
2022-12-03T12:48:13.437Z,6.32
2022-12-03T12:50:43.806Z,6.60
2022-12-03T12:53:11.541Z,7.15
2022-12-03T12:55:40.342Z,7.30
2022-12-03T12:58:15.216Z,19.80
2022-12-03T13:00:42.979Z,26.30
2022-12-03T13:03:12.865Z,24.60
2022-12-03T13:05:45.621Z,15.80
2022-12-03T13:08:30.352Z,13.18
2022-12-03T13:11:01.467Z,11.45
2022-12-03T13:13:30.707Z,10.05
2022-12-03T13:16:07.262Z,8.95
2022-12-03T13:18:41.528Z,8.50
2022-12-03T13:21:36.796Z,7.65
2022-12-03T13:24:30.282Z,6.90
2022-12-03T13:27:01.699Z,7.40
2022-12-03T13:29:29.514Z,7.75
2022-12-03T13:32:00.241Z,9.32
2022-12-03T13:34:36.951Z,9.68
2022-12-03T13:37:14.373Z,10.38
2022-12-03T13:39:51.085Z,15.77
2022-12-03T13:42:46.701Z,13.88
2022-12-03T13:45:14.897Z,11.00
2022-12-03T13:47:47.670Z,12.48
2022-12-03T13:50:30.646Z,13.20
2022-12-03T13:52:58.184Z,14.57
2022-12-03T13:55:28.666Z,21.10
2022-12-03T13:58:06.836Z,19.90
2022-12-03T14:00:36.114Z,18.63
2022-12-03T14:03:05.190Z,16.98
2022-12-03T14:05:33.073Z,14.30
2022-12-03T14:08:04.008Z,12.10
2022-12-03T14:10:31.814Z,10.43
2022-12-03T14:12:59.493Z,11.70
2022-12-03T14:15:27.179Z,13.20
2022-12-03T14:17:55.093Z,16.33
2022-12-03T14:20:23.060Z,16.65
2022-12-03T14:22:58.852Z,13.90
2022-12-03T14:25:27.209Z,11.80
2022-12-03T14:27:54.790Z,9.77
2022-12-03T14:30:22.639Z,8.80
2022-12-03T14:33:08.759Z,7.30
2022-12-03T14:35:36.592Z,6.30
2022-12-03T14:38:04.369Z,6.15
2022-12-03T14:40:32.247Z,6.30
2022-12-03T14:42:59.914Z,6.28
2022-12-03T14:45:30.053Z,5.22
2022-12-03T14:47:57.740Z,5.55
2022-12-03T14:50:26.522Z,5.60
2022-12-03T14:52:54.274Z,5.55
2022-12-03T14:55:22.395Z,5.60
2022-12-03T14:57:57.825Z,5.65
2022-12-03T15:00:25.644Z,5.60
2022-12-03T15:02:53.241Z,5.28
2022-12-03T15:05:26.618Z,5.15
2022-12-03T15:07:56.662Z,5.13
2022-12-03T15:10:24.502Z,5.40
2022-12-03T15:12:52.167Z,5.28
2022-12-03T15:15:20.009Z,4.90
2022-12-03T15:17:47.787Z,4.30
2022-12-03T15:20:15.717Z,3.97
2022-12-03T15:22:43.572Z,3.78
2022-12-03T15:25:11.505Z,3.67
2022-12-03T15:27:39.072Z,3.60
2022-12-03T15:30:07.718Z,3.40
2022-12-03T15:32:35.576Z,3.45
2022-12-03T15:35:03.240Z,4.00
2022-12-03T15:37:31.092Z,3.42
2022-12-03T15:39:59.072Z,3.75
2022-12-03T15:42:28.271Z,3.38
2022-12-03T15:44:56.689Z,3.78
2022-12-03T15:47:24.452Z,4.57
2022-12-03T15:49:52.381Z,5.10
2022-12-03T15:52:20.440Z,6.03
2022-12-03T15:54:50.302Z,4.60
2022-12-03T15:57:17.882Z,4.38
2022-12-03T15:59:45.621Z,4.72
2022-12-03T16:02:13.601Z,5.70
2022-12-03T16:04:41.382Z,6.15
2022-12-03T16:07:09.934Z,6.13
2022-12-03T16:09:37.913Z,5.68
2022-12-03T16:12:05.746Z,5.22
2022-12-03T16:14:33.827Z,5.45
2022-12-03T16:17:01.661Z,5.47
2022-12-03T16:19:29.376Z,5.60
2022-12-03T16:21:57.364Z,6.13
2022-12-03T16:24:25.642Z,5.40
2022-12-03T16:26:53.209Z,6.00
2022-12-03T16:29:21.013Z,5.68
2022-12-03T16:31:48.717Z,5.35
2022-12-03T16:34:16.765Z,5.93
2022-12-03T16:36:45.944Z,5.75
2022-12-03T16:39:14.278Z,5.47
2022-12-03T16:41:42.192Z,5.30
2022-12-03T16:44:20.341Z,5.07
2022-12-03T16:46:48.149Z,5.07
2022-12-03T16:49:16.106Z,4.90
2022-12-03T16:51:43.829Z,5.38
2022-12-03T16:54:12.072Z,5.53
2022-12-03T16:56:39.636Z,4.60
2022-12-03T16:59:07.484Z,5.40
2022-12-03T17:01:35.344Z,5.13
2022-12-03T17:04:04.380Z,5.13
2022-12-03T17:06:32.061Z,5.00
2022-12-03T17:08:59.664Z,5.15
2022-12-03T17:11:27.523Z,4.88
2022-12-03T17:13:55.156Z,5.82
2022-12-03T17:16:23.133Z,5.70
2022-12-03T17:18:51.080Z,5.30
2022-12-03T17:21:20.123Z,5.50
2022-12-03T17:23:51.172Z,5.25
2022-12-03T17:26:19.381Z,5.55
2022-12-03T17:28:47.495Z,5.80
2022-12-03T17:31:15.332Z,7.55
2022-12-03T17:33:43.216Z,6.65
2022-12-03T17:36:10.970Z,6.28
2022-12-03T17:38:39.416Z,5.60
2022-12-03T17:41:07.812Z,5.90
2022-12-03T17:43:35.684Z,5.95
2022-12-03T17:46:06.840Z,5.38
2022-12-03T17:48:35.021Z,5.45
2022-12-03T17:51:02.746Z,5.95
2022-12-03T17:53:30.305Z,6.32
2022-12-03T17:55:57.977Z,5.55
2022-12-03T17:58:26.899Z,5.60
2022-12-03T18:00:58.792Z,5.47
2022-12-03T18:03:30.237Z,5.18
2022-12-03T18:05:58.059Z,6.40
2022-12-03T18:08:25.809Z,6.43
2022-12-03T18:10:53.691Z,6.65
2022-12-03T18:13:21.729Z,6.18
2022-12-03T18:15:49.575Z,5.80
2022-12-03T18:18:17.457Z,6.97
2022-12-03T18:20:45.127Z,5.30
2022-12-03T18:23:13.171Z,5.63
2022-12-03T18:25:42.112Z,6.00
2022-12-03T18:28:12.951Z,5.82
2022-12-03T18:30:40.791Z,6.22
2022-12-03T18:33:09.080Z,6.00
2022-12-03T18:35:36.788Z,5.72
2022-12-03T18:38:04.662Z,6.10
2022-12-03T18:40:32.285Z,5.78
2022-12-03T18:43:00.227Z,5.97
2022-12-03T18:45:28.733Z,5.95
2022-12-03T18:47:56.515Z,6.22
2022-12-03T18:50:24.329Z,6.18
2022-12-03T18:52:52.138Z,6.18
2022-12-03T18:55:22.683Z,7.03
2022-12-03T18:57:50.313Z,6.35
2022-12-03T19:00:18.401Z,6.05
2022-12-03T19:03:02.507Z,6.10
2022-12-03T19:05:33.345Z,6.63
2022-12-03T19:08:02.057Z,6.57
2022-12-03T19:10:30.045Z,6.85
2022-12-03T19:12:57.846Z,6.30
2022-12-03T19:15:25.648Z,7.40
2022-12-03T19:17:53.591Z,6.40
2022-12-03T19:20:21.562Z,6.15
2022-12-03T19:22:49.256Z,6.55
2022-12-03T19:25:17.230Z,6.43
2022-12-03T19:27:45.073Z,6.32
2022-12-03T19:30:13.108Z,6.07
2022-12-03T19:32:40.816Z,6.65
2022-12-03T19:35:11.588Z,5.97
2022-12-03T19:37:39.326Z,5.60
2022-12-03T19:40:07.695Z,6.20
2022-12-03T19:42:36.209Z,6.60
2022-12-03T19:45:04.770Z,5.93
2022-12-03T19:47:33.974Z,5.82
2022-12-03T19:50:01.697Z,5.72
2022-12-03T19:52:30.055Z,5.63
2022-12-03T19:54:57.617Z,6.07
2022-12-03T19:57:25.373Z,6.57
2022-12-03T19:59:54.952Z,6.78
2022-12-03T20:02:23.022Z,6.65
2022-12-03T20:04:50.953Z,6.63
2022-12-03T20:07:18.699Z,6.03
2022-12-03T20:09:46.388Z,5.78
2022-12-03T20:12:14.052Z,6.32
2022-12-03T20:14:43.190Z,5.82
2022-12-03T20:17:11.341Z,6.28
2022-12-03T20:19:39.108Z,6.32
2022-12-03T20:22:06.815Z,6.70
2022-12-03T20:24:34.589Z,6.97
2022-12-03T20:27:02.613Z,6.90
2022-12-03T20:29:30.601Z,8.02
2022-12-03T20:31:59.896Z,9.80
2022-12-03T20:34:27.760Z,10.65
2022-12-03T20:36:55.507Z,10.60
2022-12-03T20:39:25.854Z,8.68
2022-12-03T20:41:53.829Z,8.90
2022-12-03T20:44:21.721Z,9.55
2022-12-03T20:46:49.698Z,10.43
2022-12-03T20:49:17.357Z,13.82
2022-12-03T20:51:45.303Z,12.75
2022-12-03T20:54:12.862Z,11.00
2022-12-03T20:56:42.076Z,9.80
2022-12-03T20:59:12.944Z,8.57
2022-12-03T21:01:41.517Z,8.68
2022-12-03T21:04:10.982Z,8.30
2022-12-03T21:06:38.684Z,7.55
2022-12-03T21:09:07.898Z,7.68
2022-12-03T21:11:39.163Z,8.05
2022-12-03T21:14:07.814Z,7.97
2022-12-03T21:17:07.377Z,7.10
2022-12-03T21:19:27.328Z,7.22
2022-12-03T21:21:55.110Z,7.63
2022-12-03T21:24:23.171Z,7.55
2022-12-03T21:26:51.112Z,7.18
2022-12-03T21:29:19.043Z,7.22
2022-12-03T21:31:46.769Z,7.35
2022-12-03T21:34:14.735Z,6.95
2022-12-03T21:36:42.671Z,6.97
2022-12-03T21:39:10.659Z,5.70
2022-12-03T21:41:38.362Z,6.93
2022-12-03T21:44:06.095Z,7.00
2022-12-03T21:47:10.773Z,7.00
2022-12-03T21:49:23.492Z,7.50
2022-12-03T21:51:51.330Z,7.07
2022-12-03T21:54:19.412Z,7.43
2022-12-03T21:56:47.368Z,7.85
2022-12-03T21:59:14.975Z,8.27
2022-12-03T22:01:46.926Z,8.85
2022-12-03T22:04:14.980Z,8.93
2022-12-03T22:06:42.636Z,9.20
2022-12-03T22:09:10.506Z,9.48
2022-12-03T22:11:38.220Z,9.30
2022-12-03T22:14:07.228Z,8.95
2022-12-03T22:16:34.981Z,9.10
2022-12-03T22:19:02.733Z,8.63
2022-12-03T22:21:30.500Z,9.43
2022-12-03T22:23:58.358Z,8.75
2022-12-03T22:26:26.625Z,8.80
2022-12-03T22:28:54.359Z,8.40
2022-12-03T22:31:22.276Z,7.50
2022-12-03T22:33:50.069Z,7.93
2022-12-03T22:36:21.565Z,8.63
2022-12-03T22:38:50.587Z,8.25
2022-12-03T22:41:19.563Z,8.10
2022-12-03T22:43:48.249Z,7.85
2022-12-03T22:46:17.004Z,8.35
2022-12-03T22:48:46.424Z,8.13
2022-12-03T22:51:18.538Z,8.43
2022-12-03T22:53:46.716Z,11.15
2022-12-03T22:56:14.774Z,15.25
2022-12-03T22:58:42.444Z,15.35
2022-12-03T23:01:20.522Z,14.13
2022-12-03T23:03:48.504Z,13.63
2022-12-03T23:06:16.677Z,13.25
2022-12-03T23:08:44.384Z,11.95
2022-12-03T23:11:12.843Z,11.07
2022-12-03T23:13:40.683Z,10.40
2022-12-03T23:16:14.266Z,9.70
2022-12-03T23:18:42.501Z,8.68
2022-12-03T23:21:14.432Z,9.23
2022-12-03T23:23:41.994Z,9.00
2022-12-03T23:26:12.229Z,8.40
2022-12-03T23:28:41.271Z,8.38
2022-12-03T23:31:23.314Z,8.18
2022-12-03T23:33:52.237Z,8.88
2022-12-03T23:36:21.361Z,8.82
2022-12-03T23:38:49.580Z,8.98
2022-12-03T23:41:20.683Z,9.43
2022-12-03T23:43:48.589Z,10.70
2022-12-03T23:46:22.509Z,9.00
2022-12-03T23:48:52.258Z,8.40
2022-12-03T23:51:25.015Z,8.68
2022-12-03T23:53:54.542Z,8.07
2022-12-03T23:56:25.813Z,7.95
2022-12-03T23:58:53.831Z,7.60
